createdAt,value
2017-03-11T00:00:32.390Z,0
2017-03-11T00:01:12.820Z,0
2017-03-11T00:01:53.252Z,0
2017-03-11T00:02:33.705Z,0
2017-03-11T00:03:14.088Z,0
2017-03-11T00:03:54.683Z,0
2017-03-11T00:04:35.062Z,0
2017-03-11T00:05:15.473Z,0
2017-03-11T00:05:56.742Z,0
2017-03-11T00:06:37.778Z,0
2017-03-11T00:07:18.172Z,0
2017-03-11T00:07:58.684Z,0
2017-03-11T00:08:39.107Z,0
2017-03-11T00:11:09.633Z,0
2017-03-11T00:11:53.206Z,0
2017-03-11T00:12:34.373Z,0
2017-03-11T00:13:17.258Z,0
2017-03-11T00:14:06.284Z,0
2017-03-11T00:14:46.664Z,0
2017-03-11T00:15:28.720Z,0
2017-03-11T00:16:09.730Z,0
2017-03-11T00:16:52.823Z,0
2017-03-11T00:17:38.732Z,0
2017-03-11T00:19:59.464Z,0
2017-03-11T00:20:39.932Z,0
2017-03-11T00:21:20.349Z,0
2017-03-11T00:22:06.601Z,0
2017-03-11T00:22:50.923Z,0
2017-03-11T00:23:31.457Z,0
2017-03-11T00:24:13.560Z,0
2017-03-11T00:24:54.241Z,0
2017-03-11T00:25:34.590Z,0
2017-03-11T00:26:16.593Z,0
2017-03-11T00:26:58.416Z,0
2017-03-11T00:27:46.477Z,0
2017-03-11T00:28:33.431Z,0
2017-03-11T00:29:15.023Z,0
2017-03-11T00:29:58.108Z,0
2017-03-11T00:30:45.108Z,0
2017-03-11T00:31:29.948Z,0
2017-03-11T00:32:10.310Z,0
2017-03-11T00:32:50.821Z,0
2017-03-11T00:33:31.741Z,0
2017-03-11T00:34:16.438Z,0
2017-03-11T00:34:56.857Z,0
2017-03-11T00:35:39.603Z,0
2017-03-11T00:36:20.058Z,0
2017-03-11T00:37:02.138Z,0
2017-03-11T00:37:42.524Z,0
2017-03-11T00:38:22.961Z,0
2017-03-11T00:39:03.373Z,0
2017-03-11T00:39:43.840Z,0
2017-03-11T00:40:25.182Z,0
2017-03-11T00:41:05.577Z,0
2017-03-11T00:41:45.982Z,0
2017-03-11T00:42:28.238Z,0
2017-03-11T00:43:08.750Z,0
2017-03-11T00:43:51.019Z,0
2017-03-11T00:44:31.403Z,0
2017-03-11T00:45:14.694Z,0
2017-03-11T00:45:55.138Z,0
2017-03-11T00:46:35.562Z,0
2017-03-11T00:47:15.980Z,0
2017-03-11T00:47:56.907Z,0
2017-03-11T00:48:40.127Z,0
2017-03-11T00:49:21.163Z,0
2017-03-11T00:50:01.592Z,0
2017-03-11T00:50:41.989Z,0
2017-03-11T00:51:22.420Z,0
2017-03-11T00:52:03.103Z,0
2017-03-11T00:52:44.934Z,0
2017-03-11T00:53:25.403Z,0
2017-03-11T00:54:05.776Z,0
2017-03-11T00:54:46.740Z,0
2017-03-11T00:55:27.179Z,0
2017-03-11T00:56:07.622Z,0
2017-03-11T00:56:54.906Z,0
2017-03-11T00:57:36.110Z,0
2017-03-11T00:58:16.492Z,0
2017-03-11T00:58:56.919Z,0
2017-03-11T00:59:37.386Z,0
2017-03-11T01:00:19.604Z,0
2017-03-11T01:01:02.618Z,0
2017-03-11T01:01:43.583Z,0
2017-03-11T01:02:24.649Z,0
2017-03-11T01:03:19.752Z,0
2017-03-11T01:04:01.943Z,0
2017-03-11T01:04:42.336Z,0
2017-03-11T01:05:24.487Z,0
2017-03-11T01:06:04.945Z,0
2017-03-11T01:06:45.354Z,0
2017-03-11T01:07:25.805Z,0
2017-03-11T01:08:07.037Z,0
2017-03-11T01:08:47.986Z,0
2017-03-11T01:09:28.408Z,0
2017-03-11T01:10:08.895Z,0
2017-03-11T01:10:51.064Z,0
2017-03-11T01:11:31.525Z,0
2017-03-11T01:12:14.520Z,0
2017-03-11T01:12:55.596Z,0
2017-03-11T01:13:36.061Z,0
2017-03-11T01:14:16.475Z,0
2017-03-11T01:14:57.582Z,0
2017-03-11T01:15:37.988Z,0
2017-03-11T01:16:18.439Z,0
2017-03-11T01:16:58.940Z,0
2017-03-11T01:17:41.191Z,0
2017-03-11T01:18:21.611Z,0
2017-03-11T01:19:02.071Z,0
2017-03-11T01:19:42.539Z,0
2017-03-11T01:20:22.935Z,0
2017-03-11T01:21:03.323Z,0
2017-03-11T01:21:43.751Z,0
2017-03-11T01:22:24.124Z,0
2017-03-11T01:23:05.253Z,0
2017-03-11T01:23:45.692Z,0
2017-03-11T01:24:26.198Z,0
2017-03-11T01:25:06.613Z,0
2017-03-11T01:25:47.054Z,0
2017-03-11T01:26:27.427Z,0
2017-03-11T01:27:07.854Z,0
2017-03-11T01:27:49.084Z,0
2017-03-11T01:28:30.086Z,0
2017-03-11T01:29:10.505Z,0
2017-03-11T01:29:50.968Z,0
2017-03-11T01:30:31.433Z,0
2017-03-11T01:31:11.802Z,0
2017-03-11T01:31:53.182Z,0
2017-03-11T01:32:33.621Z,0
2017-03-11T01:33:13.996Z,0
2017-03-11T01:33:54.457Z,0
2017-03-11T01:34:34.875Z,0
2017-03-11T01:35:15.314Z,0
2017-03-11T01:35:55.743Z,0
2017-03-11T01:36:36.144Z,0
2017-03-11T01:37:17.455Z,0
2017-03-11T01:37:57.849Z,0
2017-03-11T01:38:38.234Z,0
2017-03-11T01:39:18.686Z,0
2017-03-11T01:39:59.053Z,0
2017-03-11T01:40:39.598Z,0
2017-03-11T01:41:19.999Z,0
2017-03-11T01:42:00.414Z,0
2017-03-11T01:42:40.884Z,0
2017-03-11T01:43:21.337Z,0
2017-03-11T01:44:01.754Z,0
2017-03-11T01:44:44.501Z,0
2017-03-11T01:45:25.601Z,0
2017-03-11T01:46:07.009Z,0
2017-03-11T01:46:49.154Z,0
2017-03-11T01:47:29.617Z,0
2017-03-11T01:48:10.026Z,0
2017-03-11T01:48:50.429Z,0
2017-03-11T01:49:30.873Z,0
2017-03-11T01:50:13.797Z,0
2017-03-11T01:50:54.192Z,0
2017-03-11T01:51:34.643Z,0
2017-03-11T01:52:15.076Z,0
2017-03-11T01:52:55.473Z,0
2017-03-11T01:53:35.897Z,0
2017-03-11T01:54:17.333Z,0
2017-03-11T01:54:57.710Z,0
2017-03-11T01:55:38.657Z,0
2017-03-11T01:56:19.716Z,0
2017-03-11T01:57:00.130Z,0
2017-03-11T01:57:40.487Z,0
2017-03-11T01:58:20.920Z,0
2017-03-11T01:59:02.271Z,0
2017-03-11T01:59:42.647Z,0
2017-03-11T02:00:23.781Z,0
2017-03-11T02:01:04.196Z,0
2017-03-11T02:01:44.606Z,0
2017-03-11T02:02:24.986Z,0
2017-03-11T02:03:06.320Z,0
2017-03-11T02:03:46.716Z,0
2017-03-11T02:04:27.726Z,0
2017-03-11T02:05:09.241Z,0
2017-03-11T02:05:49.622Z,0
2017-03-11T02:06:31.572Z,0
2017-03-11T02:07:11.954Z,0
2017-03-11T02:07:52.461Z,0
2017-03-11T02:08:32.924Z,0
2017-03-11T02:09:13.400Z,0
2017-03-11T02:09:54.438Z,0
2017-03-11T02:10:34.829Z,0
2017-03-11T02:11:15.260Z,0
2017-03-11T02:11:55.687Z,0
2017-03-11T02:12:36.089Z,0
2017-03-11T02:13:16.464Z,0
2017-03-11T02:13:56.890Z,0
2017-03-11T02:14:38.020Z,0
2017-03-11T02:15:18.426Z,0
2017-03-11T02:15:59.586Z,0
2017-03-11T02:16:40.918Z,0
2017-03-11T02:17:21.908Z,0
2017-03-11T02:18:02.336Z,0
2017-03-11T02:18:43.585Z,0
2017-03-11T02:19:24.015Z,0
2017-03-11T02:20:04.359Z,0
2017-03-11T02:20:44.800Z,0
2017-03-11T02:21:25.277Z,0
2017-03-11T02:22:05.692Z,0
2017-03-11T02:22:46.106Z,0
2017-03-11T02:23:26.547Z,0
2017-03-11T02:24:06.943Z,0
2017-03-11T02:24:47.388Z,0
2017-03-11T02:25:27.817Z,0
2017-03-11T02:26:08.984Z,0
2017-03-11T02:26:49.483Z,0
2017-03-11T02:27:31.434Z,0
2017-03-11T02:28:11.866Z,0
2017-03-11T02:28:53.069Z,0
2017-03-11T02:29:33.501Z,0
2017-03-11T02:30:13.936Z,0
2017-03-11T02:30:54.942Z,0
2017-03-11T02:31:37.094Z,0
2017-03-11T02:32:17.446Z,0
2017-03-11T02:32:59.417Z,0
2017-03-11T02:33:39.834Z,0
2017-03-11T02:34:20.291Z,0
2017-03-11T02:35:00.676Z,0
2017-03-11T02:35:41.078Z,0
2017-03-11T02:36:22.953Z,0
2017-03-11T02:37:03.336Z,0
2017-03-11T02:37:43.754Z,0
2017-03-11T02:38:25.087Z,0
2017-03-11T02:39:05.560Z,0
2017-03-11T02:39:46.036Z,0
2017-03-11T02:40:26.402Z,0
2017-03-11T02:41:06.791Z,0
2017-03-11T02:41:47.718Z,0
2017-03-11T02:42:28.160Z,0
2017-03-11T02:43:08.560Z,0
2017-03-11T02:43:49.385Z,0
2017-03-11T02:44:29.865Z,0
2017-03-11T02:45:10.272Z,0
2017-03-11T02:45:50.625Z,0
2017-03-11T02:46:31.086Z,0
2017-03-11T02:47:11.549Z,0
2017-03-11T02:47:51.959Z,0
2017-03-11T02:48:35.690Z,0
2017-03-11T02:49:17.574Z,0
2017-03-11T02:49:59.521Z,0
2017-03-11T02:50:39.916Z,0
2017-03-11T02:51:21.058Z,0
2017-03-11T02:52:01.491Z,0
2017-03-11T02:52:41.931Z,0
2017-03-11T02:53:22.357Z,0
2017-03-11T02:54:02.797Z,0
2017-03-11T02:54:43.201Z,0
2017-03-11T02:55:23.717Z,0
2017-03-11T02:56:04.907Z,0
2017-03-11T02:56:45.345Z,0
2017-03-11T02:57:25.755Z,0
2017-03-11T02:58:06.140Z,0
2017-03-11T02:58:46.544Z,0
2017-03-11T02:59:26.982Z,0
2017-03-11T03:00:07.365Z,0
2017-03-11T03:00:47.776Z,0
2017-03-11T03:01:28.923Z,0
2017-03-11T03:02:10.280Z,0
2017-03-11T03:02:50.736Z,0
2017-03-11T03:03:32.653Z,0
2017-03-11T03:04:14.570Z,0
2017-03-11T03:04:54.945Z,0
2017-03-11T03:05:35.368Z,0
2017-03-11T03:06:16.425Z,0
2017-03-11T03:06:57.697Z,0
2017-03-11T03:07:39.591Z,0
2017-03-11T03:08:20.153Z,0
2017-03-11T03:09:00.573Z,0
2017-03-11T03:09:40.963Z,0
2017-03-11T03:10:21.411Z,0
2017-03-11T03:11:01.823Z,0
2017-03-11T03:11:43.085Z,0
2017-03-11T03:12:24.014Z,0
2017-03-11T03:13:04.361Z,0
2017-03-11T03:13:44.825Z,0
2017-03-11T03:14:25.190Z,0
2017-03-11T03:15:05.637Z,0
2017-03-11T03:15:46.063Z,0
2017-03-11T03:16:28.021Z,0
2017-03-11T03:17:08.506Z,0
2017-03-11T03:17:48.900Z,0
2017-03-11T03:18:31.276Z,0
2017-03-11T03:19:11.677Z,0
2017-03-11T03:19:52.052Z,0
2017-03-11T03:20:32.516Z,0
2017-03-11T03:21:13.798Z,0
2017-03-11T03:21:54.664Z,0
2017-03-11T03:22:35.087Z,0
2017-03-11T03:23:15.538Z,0
2017-03-11T03:23:55.964Z,0
2017-03-11T03:24:36.347Z,0
2017-03-11T03:25:16.816Z,0
2017-03-11T03:25:57.198Z,0
2017-03-11T03:26:37.617Z,0
2017-03-11T03:27:17.997Z,0
2017-03-11T03:27:58.426Z,0
2017-03-11T03:28:38.800Z,0
2017-03-11T03:29:20.011Z,0
2017-03-11T03:30:00.429Z,0
2017-03-11T03:30:41.506Z,0
2017-03-11T03:31:21.945Z,0
2017-03-11T03:32:02.352Z,0
2017-03-11T03:32:42.736Z,0
2017-03-11T03:33:23.145Z,0
2017-03-11T03:34:03.704Z,0
2017-03-11T03:34:44.075Z,0
2017-03-11T03:35:25.040Z,0
2017-03-11T03:36:05.423Z,0
2017-03-11T03:36:45.840Z,0
2017-03-11T03:37:26.240Z,0
2017-03-11T03:38:06.610Z,0
2017-03-11T03:38:47.043Z,0
2017-03-11T03:39:27.426Z,0
2017-03-11T03:40:07.842Z,0
2017-03-11T03:40:48.231Z,0
2017-03-11T03:41:28.642Z,0
2017-03-11T03:42:09.124Z,0
2017-03-11T03:42:49.529Z,0
2017-03-11T03:43:29.920Z,0
2017-03-11T03:44:10.328Z,0
2017-03-11T03:44:50.761Z,0
2017-03-11T03:45:31.176Z,0
2017-03-11T03:46:11.572Z,0
2017-03-11T03:46:51.935Z,0
2017-03-11T03:47:32.365Z,0
2017-03-11T03:48:12.818Z,0
2017-03-11T03:48:53.225Z,0
2017-03-11T03:49:33.632Z,0
2017-03-11T03:50:14.038Z,0
2017-03-11T03:50:54.423Z,0
2017-03-11T03:51:34.857Z,0
2017-03-11T03:52:15.324Z,0
2017-03-11T03:52:55.711Z,0
2017-03-11T03:53:36.082Z,0
2017-03-11T03:54:16.491Z,0
2017-03-11T03:54:56.968Z,0
2017-03-11T03:55:37.436Z,0
2017-03-11T03:56:17.976Z,0
2017-03-11T03:56:58.430Z,0
2017-03-11T03:57:39.800Z,0
2017-03-11T03:58:20.211Z,0
2017-03-11T03:59:00.616Z,0
2017-03-11T03:59:41.046Z,0
2017-03-11T04:00:21.493Z,0
2017-03-11T04:01:01.903Z,0
2017-03-11T04:01:42.303Z,0
2017-03-11T04:02:23.265Z,0
2017-03-11T04:03:03.816Z,0
2017-03-11T04:03:45.674Z,0
2017-03-11T04:04:42.569Z,0
2017-03-11T04:05:22.943Z,0
2017-03-11T04:06:21.047Z,0
2017-03-11T04:07:03.017Z,0
2017-03-11T04:07:44.167Z,0
2017-03-11T04:08:25.468Z,0
2017-03-11T04:09:06.767Z,0
2017-03-11T04:09:47.271Z,0
2017-03-11T04:10:27.706Z,0
2017-03-11T04:11:08.785Z,0
2017-03-11T04:11:49.991Z,0
2017-03-11T04:12:30.398Z,0
2017-03-11T04:13:10.884Z,0
2017-03-11T04:13:51.251Z,0
2017-03-11T04:14:33.607Z,0
2017-03-11T04:15:15.555Z,0
2017-03-11T04:15:57.756Z,0
2017-03-11T04:16:38.287Z,0
2017-03-11T04:17:22.074Z,0
2017-03-11T04:18:02.473Z,0
2017-03-11T04:18:44.497Z,0
2017-03-11T04:24:05.889Z,0
2017-03-11T04:24:46.441Z,0
2017-03-11T04:25:27.592Z,0
2017-03-11T04:26:08.043Z,0
2017-03-11T04:26:48.481Z,0
2017-03-11T04:27:28.857Z,0
2017-03-11T04:28:09.261Z,0
2017-03-11T04:28:50.224Z,0
2017-03-11T04:29:30.605Z,0
2017-03-11T04:30:11.012Z,0
2017-03-11T04:30:54.156Z,0
2017-03-11T04:31:34.531Z,0
2017-03-11T04:32:17.681Z,0
2017-03-11T04:32:58.054Z,0
2017-03-11T04:33:38.511Z,0
2017-03-11T04:34:18.863Z,0
2017-03-11T04:34:59.253Z,0
2017-03-11T04:35:39.695Z,0
2017-03-11T04:36:20.765Z,0
2017-03-11T04:37:01.714Z,0
2017-03-11T04:37:42.331Z,0
2017-03-11T04:38:22.727Z,0
2017-03-11T04:39:03.152Z,0
2017-03-11T04:39:44.394Z,0
2017-03-11T04:40:25.399Z,0
2017-03-11T04:41:05.778Z,0
2017-03-11T04:41:46.138Z,0
2017-03-11T04:42:26.605Z,0
2017-03-11T04:43:07.885Z,0
2017-03-11T04:43:49.121Z,0
2017-03-11T04:44:30.288Z,0
2017-03-11T04:45:10.661Z,0
2017-03-11T04:47:30.227Z,0
2017-03-11T04:50:00.339Z,0
2017-03-11T04:50:40.759Z,0
2017-03-11T04:51:21.184Z,0
2017-03-11T04:52:01.564Z,0
2017-03-11T04:52:41.997Z,0
2017-03-11T04:53:22.388Z,0
2017-03-11T04:54:02.833Z,0
2017-03-11T04:54:43.272Z,0
2017-03-11T04:55:23.685Z,0
2017-03-11T04:56:04.105Z,0
2017-03-11T04:56:44.551Z,0
2017-03-11T04:57:24.939Z,0
2017-03-11T04:58:05.360Z,0
2017-03-11T04:58:45.738Z,0
2017-03-11T04:59:26.171Z,0
2017-03-11T05:00:06.602Z,0
2017-03-11T05:00:46.965Z,0
2017-03-11T05:01:27.405Z,0
2017-03-11T05:02:07.777Z,0
2017-03-11T05:02:48.208Z,0
2017-03-11T05:03:28.694Z,0
2017-03-11T05:04:09.118Z,0
2017-03-11T05:04:49.547Z,0
2017-03-11T05:05:29.982Z,0
2017-03-11T05:06:10.443Z,0
2017-03-11T05:06:50.831Z,0
2017-03-11T05:07:31.427Z,0
2017-03-11T05:08:12.246Z,0
2017-03-11T05:08:52.545Z,0
2017-03-11T05:09:32.986Z,0
2017-03-11T05:10:13.359Z,0
2017-03-11T05:10:54.749Z,0
2017-03-11T05:11:35.759Z,0
2017-03-11T05:12:16.288Z,0
2017-03-11T05:12:59.663Z,0
2017-03-11T05:13:40.073Z,0
2017-03-11T05:14:20.480Z,0
2017-03-11T05:15:00.894Z,0
2017-03-11T05:15:41.888Z,0
2017-03-11T05:16:22.342Z,0
2017-03-11T05:17:02.735Z,0
2017-03-11T05:17:46.772Z,0
2017-03-11T05:18:30.896Z,0
2017-03-11T05:19:11.303Z,0
2017-03-11T05:19:51.716Z,0
2017-03-11T05:20:32.118Z,0
2017-03-11T05:21:12.580Z,0
2017-03-11T05:21:52.960Z,0
2017-03-11T05:22:33.374Z,0
2017-03-11T05:23:13.759Z,0
2017-03-11T05:23:54.222Z,0
2017-03-11T05:24:34.722Z,0
2017-03-11T05:25:15.038Z,0
2017-03-11T05:25:56.113Z,0
2017-03-11T05:26:36.583Z,0
2017-03-11T05:27:16.981Z,0
2017-03-11T05:27:57.453Z,0
2017-03-11T05:28:37.863Z,0
2017-03-11T05:29:18.242Z,0
2017-03-11T05:29:59.668Z,0
2017-03-11T05:30:40.066Z,0
2017-03-11T05:31:20.725Z,0
2017-03-11T05:32:01.115Z,0
2017-03-11T05:32:41.602Z,0
2017-03-11T05:33:22.104Z,0
2017-03-11T05:34:02.512Z,0
2017-03-11T05:34:42.914Z,0
2017-03-11T05:35:23.383Z,0
2017-03-11T05:36:03.854Z,0
2017-03-11T05:36:44.339Z,0
2017-03-11T05:37:24.757Z,0
2017-03-11T05:38:05.165Z,0
2017-03-11T05:38:45.682Z,0
2017-03-11T05:39:26.071Z,0
2017-03-11T05:40:06.459Z,0
2017-03-11T05:40:46.862Z,0
2017-03-11T05:41:27.248Z,0
2017-03-11T05:42:07.713Z,0
2017-03-11T05:42:48.920Z,0
2017-03-11T05:43:29.363Z,0
2017-03-11T05:44:09.773Z,0
2017-03-11T05:44:50.182Z,0
2017-03-11T05:45:30.645Z,0
2017-03-11T05:46:11.109Z,0
2017-03-11T05:46:51.582Z,0
2017-03-11T05:47:31.982Z,0
2017-03-11T05:48:12.403Z,0
2017-03-11T05:48:52.790Z,0
2017-03-11T05:49:33.164Z,0
2017-03-11T05:50:13.615Z,0
2017-03-11T05:50:54.005Z,0
2017-03-11T05:51:34.398Z,0
2017-03-11T05:52:14.825Z,0
2017-03-11T05:52:55.804Z,0
2017-03-11T05:53:36.197Z,0
2017-03-11T05:54:16.636Z,0
2017-03-11T05:54:57.782Z,0
2017-03-11T05:55:38.191Z,0
2017-03-11T05:56:18.602Z,0
2017-03-11T05:56:59.015Z,0
2017-03-11T05:57:39.454Z,0
2017-03-11T05:58:19.876Z,0
2017-03-11T05:59:00.301Z,0
2017-03-11T05:59:40.731Z,0
2017-03-11T06:00:21.135Z,0
2017-03-11T06:01:02.413Z,0
2017-03-11T06:01:42.844Z,0
2017-03-11T06:02:23.292Z,0
2017-03-11T06:03:03.643Z,0
2017-03-11T06:03:44.101Z,0
2017-03-11T06:04:24.523Z,0
2017-03-11T06:05:04.909Z,0
2017-03-11T06:05:46.180Z,0
2017-03-11T06:06:26.550Z,0
2017-03-11T06:07:07.588Z,0
2017-03-11T06:07:48.010Z,0
2017-03-11T06:08:28.460Z,0
2017-03-11T06:09:08.901Z,0
2017-03-11T06:09:49.278Z,0
2017-03-11T06:10:29.723Z,0
2017-03-11T06:11:10.180Z,0
2017-03-11T06:11:50.588Z,0
2017-03-11T06:12:30.978Z,0
2017-03-11T06:13:11.393Z,0
2017-03-11T06:13:51.849Z,0
2017-03-11T06:14:32.237Z,0
2017-03-11T06:15:12.648Z,0
2017-03-11T06:15:53.076Z,0
2017-03-11T06:16:33.470Z,0
2017-03-11T06:17:13.903Z,0
2017-03-11T06:17:54.285Z,0
2017-03-11T06:18:34.689Z,0
2017-03-11T06:19:15.049Z,0
2017-03-11T06:19:55.497Z,0
2017-03-11T06:20:35.889Z,0
2017-03-11T06:21:16.341Z,0
2017-03-11T06:21:56.736Z,0
2017-03-11T06:22:37.160Z,0
2017-03-11T06:23:17.539Z,0
2017-03-11T06:23:57.978Z,0
2017-03-11T06:24:38.392Z,0
2017-03-11T06:25:18.802Z,0
2017-03-11T06:25:59.177Z,0
2017-03-11T06:26:39.578Z,0
2017-03-11T06:27:19.964Z,0
2017-03-11T06:28:00.352Z,0
2017-03-11T06:28:40.797Z,0
2017-03-11T06:29:22.154Z,0
2017-03-11T06:30:02.594Z,0
2017-03-11T06:30:42.965Z,0
2017-03-11T06:31:24.317Z,0
2017-03-11T06:32:04.734Z,0
2017-03-11T06:32:45.181Z,0
2017-03-11T06:33:25.639Z,0
2017-03-11T06:34:06.941Z,0
2017-03-11T06:34:47.353Z,0
2017-03-11T06:35:28.702Z,0
2017-03-11T06:36:09.077Z,0
2017-03-11T06:36:49.535Z,0
2017-03-11T06:37:29.961Z,0
2017-03-11T06:38:10.425Z,0
2017-03-11T06:38:50.791Z,0
2017-03-11T06:39:31.219Z,0
2017-03-11T06:40:14.208Z,0
2017-03-11T06:40:54.587Z,0
2017-03-11T06:41:35.903Z,0
2017-03-11T06:42:16.346Z,0
2017-03-11T06:42:57.466Z,0
2017-03-11T06:43:37.913Z,0
2017-03-11T06:44:18.925Z,0
2017-03-11T06:44:59.324Z,0
2017-03-11T06:45:39.749Z,0
2017-03-11T06:46:20.233Z,0
2017-03-11T06:47:00.582Z,0
2017-03-11T06:47:41.001Z,0
2017-03-11T06:48:21.449Z,0
2017-03-11T06:49:01.872Z,0
2017-03-11T06:49:43.194Z,0
2017-03-11T06:50:25.602Z,0
2017-03-11T06:51:06.119Z,0
2017-03-11T06:51:46.644Z,0
2017-03-11T06:52:27.205Z,0
2017-03-11T06:53:08.659Z,0
2017-03-11T06:53:52.693Z,0
2017-03-11T06:54:33.276Z,0
2017-03-11T06:55:16.281Z,0
2017-03-11T06:55:58.361Z,0
2017-03-11T06:56:40.564Z,0
2017-03-11T06:57:21.027Z,0
2017-03-11T06:58:02.138Z,0
2017-03-11T06:58:42.704Z,0
2017-03-11T06:59:23.110Z,0
2017-03-11T07:00:03.491Z,0
2017-03-11T07:00:44.681Z,0
2017-03-11T07:01:25.041Z,0
2017-03-11T07:02:05.464Z,0
2017-03-11T07:02:46.301Z,0
2017-03-11T07:03:26.804Z,0
2017-03-11T07:04:08.041Z,0
2017-03-11T07:04:48.575Z,0
2017-03-11T07:05:29.051Z,0
2017-03-11T07:06:10.610Z,0
2017-03-11T07:06:53.872Z,0
2017-03-11T07:07:39.064Z,0
2017-03-11T07:08:20.323Z,0
2017-03-11T07:09:04.181Z,0
2017-03-11T07:11:42.159Z,0
2017-03-11T07:14:13.509Z,0
2017-03-11T07:16:28.618Z,0
2017-03-11T07:17:11.821Z,0
2017-03-11T07:17:52.286Z,0
2017-03-11T07:20:09.103Z,0
2017-03-11T07:20:48.813Z,0
2017-03-11T07:21:29.217Z,0
2017-03-11T07:22:09.580Z,0
2017-03-11T07:22:50.017Z,0
2017-03-11T07:23:30.465Z,0
2017-03-11T07:24:10.905Z,0
2017-03-11T07:24:51.351Z,0
2017-03-11T07:25:31.802Z,0
2017-03-11T07:26:12.242Z,0
2017-03-11T07:26:52.683Z,0
2017-03-11T07:27:33.106Z,0
2017-03-11T07:28:13.546Z,0
2017-03-11T07:28:53.981Z,0
2017-03-11T07:29:34.407Z,0
2017-03-11T07:30:14.841Z,0
2017-03-11T07:30:55.275Z,0
2017-03-11T07:31:35.719Z,0
2017-03-11T07:32:16.171Z,0
2017-03-11T07:32:56.590Z,0
2017-03-11T07:33:37.034Z,0
2017-03-11T07:34:17.483Z,0
2017-03-11T07:34:58.203Z,0
2017-03-11T07:35:38.626Z,0
2017-03-11T07:36:18.971Z,0
2017-03-11T07:36:59.388Z,0
2017-03-11T07:37:42.571Z,0
2017-03-11T07:38:23.643Z,0
2017-03-11T07:39:05.830Z,0
2017-03-11T07:39:46.160Z,0
2017-03-11T07:42:06.589Z,0
2017-03-11T07:42:53.004Z,0
2017-03-11T07:43:33.740Z,0
2017-03-11T07:45:54.020Z,0
2017-03-11T07:46:42.997Z,0
2017-03-11T07:47:31.317Z,0
2017-03-11T07:48:18.987Z,0
2017-03-11T07:49:06.360Z,0
2017-03-11T07:51:46.467Z,0
2017-03-11T07:52:34.860Z,0
2017-03-11T07:57:03.001Z,0
2017-03-11T07:59:38.336Z,0
2017-03-11T08:00:27.948Z,0
2017-03-11T08:01:15.937Z,0
2017-03-11T08:02:04.742Z,0
2017-03-11T08:02:53.025Z,0
2017-03-11T08:03:41.942Z,0
2017-03-11T08:04:30.205Z,0
2017-03-11T08:10:34.217Z,0
2017-03-11T08:12:55.510Z,0
2017-03-11T08:13:43.904Z,0
2017-03-11T08:14:32.703Z,0
2017-03-11T08:15:25.293Z,0
2017-03-11T08:17:49.942Z,0
2017-03-11T08:18:38.699Z,0
2017-03-11T08:20:59.766Z,0
2017-03-11T08:21:49.316Z,0
2017-03-11T08:24:11.161Z,0
2017-03-11T08:25:00.151Z,0
2017-03-11T08:25:51.548Z,0
2017-03-11T08:28:13.278Z,0
2017-03-11T08:30:33.833Z,0
2017-03-11T08:31:22.828Z,0
2017-03-11T08:33:44.230Z,0
2017-03-11T08:34:32.669Z,0
2017-03-11T08:35:20.953Z,0
2017-03-11T08:36:09.672Z,0
2017-03-11T08:36:57.977Z,0
2017-03-11T08:37:46.770Z,0
2017-03-11T08:38:34.230Z,0
2017-03-11T08:39:23.214Z,0
2017-03-11T08:40:11.504Z,0
2017-03-11T08:42:48.122Z,0
2017-03-11T08:43:36.667Z,0
2017-03-11T08:44:25.677Z,0
2017-03-11T08:45:14.228Z,0
2017-03-11T08:46:02.813Z,0
2017-03-11T08:46:50.977Z,0
2017-03-11T08:47:39.548Z,0
2017-03-11T08:48:28.535Z,0
2017-03-11T08:49:16.622Z,0
2017-03-11T08:50:07.459Z,0
2017-03-11T08:50:50.583Z,0
2017-03-11T08:51:31.881Z,0
2017-03-11T08:52:12.715Z,0
2017-03-11T08:52:53.560Z,0
2017-03-11T08:53:34.586Z,0
2017-03-11T08:54:14.914Z,0
2017-03-11T08:54:55.367Z,0
2017-03-11T08:55:35.844Z,0
2017-03-11T08:56:17.180Z,0
2017-03-11T08:56:57.636Z,0
2017-03-11T08:57:38.074Z,0
2017-03-11T08:58:19.025Z,0
2017-03-11T08:59:02.133Z,0
2017-03-11T08:59:43.927Z,0
2017-03-11T09:00:24.337Z,0
2017-03-11T09:01:04.747Z,0
2017-03-11T09:01:46.116Z,0
2017-03-11T09:02:26.509Z,0
2017-03-11T09:03:07.656Z,0
2017-03-11T09:03:48.041Z,0
2017-03-11T09:04:28.564Z,0
2017-03-11T09:05:09.501Z,0
2017-03-11T09:05:49.967Z,0
2017-03-11T09:06:30.803Z,0
2017-03-11T09:07:11.204Z,0
2017-03-11T09:07:51.649Z,0
2017-03-11T09:08:38.677Z,0
2017-03-11T09:09:19.038Z,0
2017-03-11T09:10:00.167Z,0
2017-03-11T09:10:41.443Z,0
2017-03-11T09:11:21.871Z,0
2017-03-11T09:12:02.270Z,0
2017-03-11T09:12:42.702Z,0
2017-03-11T09:13:23.137Z,0
2017-03-11T09:14:04.316Z,0
2017-03-11T09:14:45.385Z,0
2017-03-11T09:15:25.770Z,0
2017-03-11T09:16:06.246Z,0
2017-03-11T09:16:46.599Z,0
2017-03-11T09:17:27.154Z,0
2017-03-11T09:18:07.601Z,0
2017-03-11T09:18:48.068Z,0
2017-03-11T09:19:28.489Z,0
2017-03-11T09:20:08.911Z,0
2017-03-11T09:20:49.343Z,0
2017-03-11T09:21:29.715Z,0
2017-03-11T09:22:10.246Z,0
2017-03-11T09:22:52.523Z,0
2017-03-11T09:23:33.228Z,0
2017-03-11T09:24:13.546Z,0
2017-03-11T09:24:54.153Z,0
2017-03-11T09:25:34.805Z,0
2017-03-11T09:26:15.253Z,0
2017-03-11T09:26:55.765Z,0
2017-03-11T09:27:38.952Z,0
2017-03-11T09:28:20.344Z,0
2017-03-11T09:29:05.338Z,0
2017-03-11T09:29:45.777Z,0
2017-03-11T09:30:26.256Z,0
2017-03-11T09:31:07.582Z,0
2017-03-11T09:31:50.000Z,0
2017-03-11T09:32:30.307Z,0
2017-03-11T09:33:11.043Z,0
2017-03-11T09:33:51.944Z,0
2017-03-11T09:34:32.931Z,0
2017-03-11T09:35:14.585Z,0
2017-03-11T09:35:55.083Z,0
2017-03-11T09:36:36.021Z,0
2017-03-11T09:37:17.443Z,0
2017-03-11T09:38:00.399Z,0
2017-03-11T09:38:40.908Z,0
2017-03-11T09:39:22.974Z,0
2017-03-11T09:40:03.418Z,0
2017-03-11T09:40:44.076Z,0
2017-03-11T09:41:24.504Z,0
2017-03-11T09:42:06.625Z,0
2017-03-11T09:42:47.250Z,0
2017-03-11T09:43:27.579Z,0
2017-03-11T09:44:08.020Z,0
2017-03-11T09:44:48.478Z,0
2017-03-11T09:45:28.887Z,0
2017-03-11T09:46:09.316Z,0
2017-03-11T09:46:51.425Z,0
2017-03-11T09:47:31.869Z,0
2017-03-11T09:48:12.311Z,0
2017-03-11T09:48:53.715Z,0
2017-03-11T09:49:34.409Z,0
2017-03-11T09:50:15.352Z,0
2017-03-11T09:50:55.793Z,0
2017-03-11T09:51:36.237Z,0
2017-03-11T09:52:17.455Z,0
2017-03-11T09:52:58.571Z,0
2017-03-11T09:55:19.039Z,0
2017-03-11T09:56:07.991Z,0
2017-03-11T09:56:56.404Z,0
2017-03-11T10:10:30.064Z,999.45
2017-03-11T10:15:44.991Z,999.3
2017-03-11T10:16:33.823Z,999.3
2017-03-11T10:17:19.636Z,999.27
2017-03-11T10:18:00.800Z,999.25
2017-03-11T10:18:44.669Z,999.27
2017-03-11T10:19:26.651Z,999.27
2017-03-11T10:20:09.773Z,999.22
2017-03-11T10:20:51.014Z,999.21
2017-03-11T10:21:31.468Z,999.2
2017-03-11T10:22:12.735Z,999.19
2017-03-11T10:22:53.811Z,999.2
2017-03-11T10:23:34.248Z,999.18
2017-03-11T10:24:16.507Z,999.22
2017-03-11T10:26:33.731Z,999.21
2017-03-11T10:27:15.917Z,999.21
2017-03-11T10:27:56.922Z,999.22
2017-03-11T10:28:37.973Z,999.18
2017-03-11T10:29:18.378Z,999.19
2017-03-11T10:29:59.522Z,999.19
2017-03-11T10:32:21.087Z,999.26
2017-03-11T10:33:01.718Z,999.28
2017-03-11T10:33:46.812Z,999.27
2017-03-11T10:34:29.842Z,999.25
2017-03-11T10:35:10.835Z,999.26
2017-03-11T10:35:52.136Z,999.21
2017-03-11T10:36:33.146Z,999.2
2017-03-11T10:37:18.955Z,999.19
2017-03-11T10:38:00.331Z,999.18
2017-03-11T10:38:40.774Z,999.2
2017-03-11T10:39:21.312Z,999.13
2017-03-11T10:40:01.790Z,999.15
2017-03-11T10:40:42.806Z,999.1
2017-03-11T10:41:23.587Z,999.13
2017-03-11T10:42:06.830Z,999.15
2017-03-11T10:42:47.443Z,999.15
2017-03-11T10:43:29.269Z,999.11
2017-03-11T10:44:09.845Z,999.12
2017-03-11T10:44:51.245Z,999.1
2017-03-11T10:45:33.343Z,999.11
2017-03-11T10:46:14.779Z,999.06
2017-03-11T10:46:57.761Z,999.12
2017-03-11T10:47:38.563Z,999.12
2017-03-11T10:48:20.367Z,999.11
2017-03-11T10:49:01.725Z,999.13
2017-03-11T10:49:45.585Z,999.08
2017-03-11T10:50:26.350Z,999.07
2017-03-11T10:51:06.822Z,999.02
2017-03-11T10:51:49.235Z,999.06
2017-03-11T10:54:04.954Z,999.12
2017-03-11T10:54:47.747Z,999.09
2017-03-11T10:55:28.968Z,999.05
2017-03-11T10:56:13.124Z,999.05
2017-03-11T10:56:54.408Z,999.02
2017-03-11T10:57:36.696Z,999.02
2017-03-11T10:58:19.711Z,999.02
2017-03-11T11:00:50.141Z,998.95
2017-03-11T11:01:30.274Z,998.9
2017-03-11T11:02:12.152Z,998.86
2017-03-11T11:02:53.307Z,998.88
2017-03-11T11:03:39.158Z,998.86
2017-03-11T11:04:21.671Z,998.87
2017-03-11T11:05:02.143Z,998.84
2017-03-11T11:05:42.594Z,998.89
2017-03-11T11:06:25.669Z,998.91
2017-03-11T11:07:06.203Z,998.86
2017-03-11T11:07:46.653Z,998.86
2017-03-11T11:08:31.866Z,998.86
2017-03-11T11:09:12.981Z,998.83
2017-03-11T11:09:54.173Z,998.81
2017-03-11T11:10:35.620Z,998.8
2017-03-11T11:11:16.916Z,998.79
2017-03-11T11:11:58.199Z,998.81
2017-03-11T11:12:42.072Z,998.82
2017-03-11T11:13:21.743Z,998.81
2017-03-11T11:14:02.893Z,998.77
2017-03-11T11:14:43.702Z,998.84
2017-03-11T11:15:24.372Z,998.81
2017-03-11T11:16:05.604Z,998.78